createdAt,value
2018-04-28T00:00:11.012Z,10.96
2018-04-28T00:03:13.545Z,11.02
2018-04-28T00:06:16.089Z,10.84
2018-04-28T00:09:18.693Z,10.86
2018-04-28T00:12:21.273Z,10.65
2018-04-28T00:15:23.819Z,10.86
2018-04-28T00:18:26.472Z,10.73
2018-04-28T00:21:35.357Z,10.66
2018-04-28T00:24:39.637Z,10.77
2018-04-28T00:27:53.646Z,10.82
2018-04-28T00:31:13.706Z,10.58
2018-04-28T00:34:16.213Z,10.64
2018-04-28T00:37:24.544Z,10.83
2018-04-28T00:40:32.807Z,10.67
2018-04-28T00:43:35.292Z,10.53
2018-04-28T00:46:37.795Z,10.52
2018-04-28T00:49:44.169Z,10.57
2018-04-28T00:52:46.752Z,10.55
2018-04-28T00:55:50.600Z,10.50
2018-04-28T00:59:04.567Z,10.63
2018-04-28T01:02:09.689Z,10.59
2018-04-28T01:05:12.248Z,10.59
2018-04-28T01:08:14.771Z,10.42
2018-04-28T01:11:19.860Z,10.29
2018-04-28T01:14:34.142Z,10.20
2018-04-28T01:17:36.632Z,10.35
2018-04-28T01:20:43.363Z,10.28
2018-04-28T01:23:46.563Z,10.24
2018-04-28T01:30:46.387Z,10.23
2018-04-28T01:34:01.158Z,10.21
2018-04-28T01:37:07.336Z,10.01
2018-04-28T01:40:13.416Z,10.28
2018-04-28T01:43:26.690Z,10.39
2018-04-28T01:46:30.757Z,10.24
2018-04-28T01:49:48.913Z,10.20
2018-04-28T01:52:51.518Z,10.33
2018-04-28T01:55:55.678Z,10.18
2018-04-28T01:58:58.205Z,10.12
2018-04-28T02:02:08.210Z,10.19
2018-04-28T02:08:46.997Z,10.18
2018-04-28T02:12:08.284Z,10.16
2018-04-28T02:15:19.511Z,10.04
2018-04-28T02:22:21.776Z,9.99
2018-04-28T02:25:29.747Z,10.07
2018-04-28T02:28:45.878Z,10.01
2018-04-28T02:32:03.331Z,10.04
2018-04-28T02:35:33.326Z,10.00
2018-04-28T02:38:35.843Z,9.93
2018-04-28T02:45:15.148Z,9.86
2018-04-28T02:48:25.352Z,9.81
2018-04-28T02:51:34.389Z,9.73
2018-04-28T02:58:34.336Z,9.66
2018-04-28T03:01:43.381Z,9.45
2018-04-28T03:08:19.033Z,9.45
2018-04-28T03:11:21.556Z,9.33
2018-04-28T03:14:24.064Z,9.25
2018-04-28T03:17:33.247Z,9.38
2018-04-28T03:20:35.740Z,9.15
2018-04-28T03:23:38.237Z,9.44
2018-04-28T03:26:46.074Z,9.27
2018-04-28T03:29:52.816Z,9.26
2018-04-28T03:32:57.637Z,9.07
2018-04-28T03:36:02.760Z,9.20
2018-04-28T03:39:16.569Z,9.13
2018-04-28T03:42:34.832Z,9.23
2018-04-28T03:45:38.095Z,9.26
2018-04-28T03:48:45.095Z,9.26
2018-04-28T03:51:50.941Z,8.97
2018-04-28T03:54:57.166Z,9.18
2018-04-28T03:58:11.468Z,8.90
2018-04-28T04:01:25.801Z,9.07
2018-04-28T04:08:16.272Z,9.01
2018-04-28T04:15:15.164Z,9.18
2018-04-28T04:18:29.463Z,9.28
2018-04-28T04:21:32.720Z,9.22
2018-04-28T04:24:41.971Z,9.09
2018-04-28T04:27:46.210Z,8.97
2018-04-28T04:30:54.477Z,8.89
2018-04-28T04:37:34.367Z,9.00
2018-04-28T04:44:22.683Z,8.97
2018-04-28T04:47:31.618Z,8.91
2018-04-28T04:50:36.924Z,8.98
2018-04-28T04:53:42.027Z,9.08
2018-04-28T04:56:53.160Z,9.06
2018-04-28T05:03:35.113Z,9.27
2018-04-28T05:06:38.449Z,9.32
2018-04-28T05:09:47.764Z,9.31
2018-04-28T05:16:29.373Z,9.52
2018-04-28T05:19:55.494Z,9.65
2018-04-28T05:23:02.816Z,9.81
2018-04-28T05:29:47.111Z,9.99
2018-04-28T05:36:46.080Z,10.28
2018-04-28T05:40:07.054Z,10.36
2018-04-28T05:46:52.825Z,10.39
2018-04-28T05:53:37.415Z,10.53
2018-04-28T05:57:03.521Z,10.61
2018-04-28T06:00:20.907Z,10.75
2018-04-28T06:03:32.098Z,10.85
2018-04-28T06:10:18.878Z,11.10
2018-04-28T06:13:28.136Z,11.25
2018-04-28T06:16:32.402Z,11.41
2018-04-28T06:19:46.615Z,11.59
2018-04-28T06:22:50.166Z,11.69
2018-04-28T06:25:52.679Z,11.83
2018-04-28T06:28:55.220Z,11.93
2018-04-28T06:31:57.748Z,12.08
2018-04-28T06:35:00.302Z,12.16
2018-04-28T06:38:02.837Z,12.27
2018-04-28T06:41:05.349Z,12.35
2018-04-28T06:44:07.885Z,12.52
2018-04-28T06:47:10.400Z,12.54
2018-04-28T06:50:12.930Z,12.56
2018-04-28T06:53:15.504Z,12.68
2018-04-28T06:56:18.044Z,12.74
2018-04-28T06:59:20.613Z,12.82
2018-04-28T07:02:23.134Z,12.93
2018-04-28T07:05:25.677Z,13.00
2018-04-28T07:08:28.196Z,13.15
2018-04-28T07:11:30.736Z,13.31
2018-04-28T07:14:33.348Z,13.48
2018-04-28T07:17:35.880Z,13.64
2018-04-28T07:20:38.447Z,13.80
2018-04-28T07:23:40.995Z,14.05
2018-04-28T07:26:43.545Z,14.16
2018-04-28T07:29:46.076Z,14.34
2018-04-28T07:32:48.612Z,14.61
2018-04-28T07:35:51.314Z,14.83
2018-04-28T07:38:53.891Z,15.00
2018-04-28T07:41:56.448Z,15.17
2018-04-28T07:44:58.977Z,15.28
2018-04-28T07:48:01.541Z,15.47
2018-04-28T07:51:04.080Z,15.78
2018-04-28T07:54:06.681Z,15.92
2018-04-28T07:57:09.176Z,16.13
2018-04-28T08:00:11.696Z,16.35
2018-04-28T08:03:14.271Z,16.63
2018-04-28T08:06:16.836Z,16.76
2018-04-28T08:09:19.461Z,17.12
2018-04-28T08:12:22.305Z,17.56
2018-04-28T08:15:24.909Z,17.43
2018-04-28T08:18:27.468Z,17.85
2018-04-28T08:21:30.037Z,18.16
2018-04-28T08:24:34.180Z,18.34
2018-04-28T08:27:36.816Z,18.61
2018-04-28T08:30:40.077Z,19.26
2018-04-28T08:33:43.119Z,19.50
2018-04-28T08:36:45.715Z,19.76
2018-04-28T08:39:48.255Z,19.92
2018-04-28T08:42:50.750Z,20.10
2018-04-28T08:45:53.279Z,20.43
2018-04-28T08:48:55.823Z,20.71
2018-04-28T08:51:59.065Z,20.73
2018-04-28T08:55:01.632Z,20.50
2018-04-28T08:58:05.062Z,20.72
2018-04-28T09:01:07.587Z,20.89
2018-04-28T09:04:10.210Z,20.65
2018-04-28T09:07:39.653Z,21.26
2018-04-28T09:10:42.214Z,21.40
2018-04-28T09:13:44.794Z,21.58
2018-04-28T09:16:47.406Z,21.38
2018-04-28T09:19:50.066Z,21.22
2018-04-28T09:22:53.491Z,21.63
2018-04-28T09:25:56.081Z,22.06
2018-04-28T09:28:58.767Z,22.20
2018-04-28T09:32:01.467Z,22.52
2018-04-28T09:35:04.030Z,22.75
2018-04-28T09:38:06.701Z,22.78
2018-04-28T09:41:09.255Z,22.62
2018-04-28T09:44:11.820Z,22.74
2018-04-28T09:47:14.406Z,23.39
2018-04-28T09:50:16.921Z,23.33
2018-04-28T09:53:19.747Z,23.40
2018-04-28T09:56:22.422Z,23.24
2018-04-28T09:59:25.088Z,23.24
2018-04-28T10:02:27.773Z,23.70
2018-04-28T10:05:30.963Z,23.56
2018-04-28T10:08:33.610Z,23.33
2018-04-28T10:11:36.204Z,23.70
2018-04-28T10:14:38.843Z,23.53
2018-04-28T10:17:41.357Z,23.94
2018-04-28T10:20:43.928Z,23.73
2018-04-28T10:23:46.480Z,23.84
2018-04-28T10:26:49.043Z,23.55
2018-04-28T10:29:51.564Z,23.96
2018-04-28T10:32:54.205Z,23.98
2018-04-28T10:35:56.739Z,24.01
2018-04-28T10:38:59.310Z,24.43
2018-04-28T10:42:01.842Z,24.18
2018-04-28T10:45:04.390Z,24.27
2018-04-28T10:48:06.887Z,23.92
2018-04-28T10:51:09.403Z,23.75
2018-04-28T10:54:11.992Z,24.03
2018-04-28T10:57:14.500Z,24.33
2018-04-28T11:00:17.042Z,24.19
2018-04-28T11:03:23.255Z,24.26
2018-04-28T11:06:25.896Z,24.26
2018-04-28T11:09:28.410Z,24.37
2018-04-28T11:12:30.921Z,24.75
2018-04-28T11:15:34.319Z,24.76
2018-04-28T11:18:36.915Z,24.55
2018-04-28T11:21:39.424Z,24.52
2018-04-28T11:24:42.064Z,24.32
2018-04-28T11:27:44.576Z,24.47
2018-04-28T11:30:47.119Z,24.52
2018-04-28T11:33:49.679Z,24.25
2018-04-28T11:36:52.287Z,24.90
2018-04-28T11:39:54.894Z,24.82
2018-04-28T11:42:57.450Z,24.87
2018-04-28T11:46:00.063Z,24.66
2018-04-28T11:49:02.641Z,24.68
2018-04-28T11:52:05.180Z,24.43
2018-04-28T11:55:07.780Z,24.40
2018-04-28T11:58:10.328Z,24.36
2018-04-28T12:01:12.870Z,24.31
2018-04-28T12:04:15.424Z,24.15
2018-04-28T12:07:17.997Z,23.76
2018-04-28T12:10:20.590Z,23.43
2018-04-28T12:13:23.139Z,23.60
2018-04-28T12:16:25.695Z,23.37
2018-04-28T12:19:28.219Z,23.33
2018-04-28T12:22:30.741Z,23.18
2018-04-28T12:25:33.288Z,23.49
2018-04-28T12:28:35.815Z,23.79
2018-04-28T12:31:38.555Z,23.88
2018-04-28T12:34:41.175Z,23.80
2018-04-28T12:37:43.698Z,23.82
2018-04-28T12:40:46.232Z,23.63
2018-04-28T12:43:48.754Z,23.82
2018-04-28T12:46:51.279Z,24.07
2018-04-28T12:49:53.790Z,24.03
2018-04-28T12:52:56.285Z,23.75
2018-04-28T12:55:58.796Z,23.96
2018-04-28T12:59:01.361Z,24.25
2018-04-28T13:02:03.941Z,24.46
2018-04-28T13:05:06.489Z,24.48
2018-04-28T13:08:09.010Z,24.49
2018-04-28T13:11:11.568Z,24.70
2018-04-28T13:14:14.128Z,24.75
2018-04-28T13:17:16.620Z,24.86
2018-04-28T13:20:19.158Z,24.71
2018-04-28T13:23:21.682Z,24.99
2018-04-28T13:26:24.232Z,25.00
2018-04-28T13:29:26.764Z,25.09
2018-04-28T13:32:29.381Z,25.29
2018-04-28T13:35:32.236Z,25.82
2018-04-28T13:38:34.806Z,25.51
2018-04-28T13:41:37.923Z,25.74
2018-04-28T13:44:41.251Z,25.71
2018-04-28T13:47:43.770Z,25.81
2018-04-28T13:50:46.323Z,25.39
2018-04-28T13:53:48.831Z,25.68
2018-04-28T13:56:51.322Z,25.51
2018-04-28T13:59:53.869Z,25.53
2018-04-28T14:02:56.398Z,25.32
2018-04-28T14:05:58.996Z,25.52
2018-04-28T14:09:01.588Z,25.65
2018-04-28T14:12:04.107Z,25.67
2018-04-28T14:15:06.633Z,25.85
2018-04-28T14:18:09.148Z,25.73
2018-04-28T14:21:11.706Z,25.65
2018-04-28T14:24:14.249Z,26.06
2018-04-28T14:27:16.834Z,25.97
2018-04-28T14:30:19.409Z,25.99
2018-04-28T14:33:21.963Z,26.04
2018-04-28T14:36:24.488Z,26.24
2018-04-28T14:39:27.072Z,25.77
2018-04-28T14:42:40.319Z,25.63
2018-04-28T14:45:42.850Z,25.40
2018-04-28T14:48:45.375Z,25.65
2018-04-28T14:51:47.952Z,25.77
2018-04-28T14:54:50.481Z,25.62
2018-04-28T14:57:53.045Z,25.70
2018-04-28T15:00:55.591Z,25.68
2018-04-28T15:03:58.149Z,25.69
2018-04-28T15:07:00.751Z,25.51
2018-04-28T15:10:03.325Z,25.35
2018-04-28T15:13:05.891Z,25.36
2018-04-28T15:16:08.403Z,25.44
2018-04-28T15:19:10.946Z,25.30
2018-04-28T15:22:13.514Z,25.16
2018-04-28T15:25:16.077Z,25.18
2018-04-28T15:28:18.637Z,25.20
2018-04-28T15:31:21.237Z,24.97
2018-04-28T15:34:23.762Z,25.06
2018-04-28T15:37:26.331Z,25.40
2018-04-28T15:40:28.899Z,25.46
2018-04-28T15:43:31.477Z,25.16
2018-04-28T15:46:33.993Z,25.14
2018-04-28T15:49:36.505Z,25.24
2018-04-28T15:52:39.022Z,25.23
2018-04-28T15:55:41.624Z,25.30
2018-04-28T15:58:44.174Z,25.13
2018-04-28T16:01:46.725Z,24.84
2018-04-28T16:04:49.739Z,24.62
2018-04-28T16:07:52.296Z,24.74
2018-04-28T16:10:54.948Z,24.73
2018-04-28T16:13:57.429Z,24.53
2018-04-28T16:17:00.045Z,24.57
2018-04-28T16:20:02.545Z,24.40
2018-04-28T16:23:05.102Z,24.38
2018-04-28T16:26:07.671Z,24.19
2018-04-28T16:29:10.193Z,23.90
2018-04-28T16:32:12.688Z,23.90
2018-04-28T16:35:15.274Z,23.59
2018-04-28T16:38:17.815Z,23.58
2018-04-28T16:41:20.338Z,23.41
2018-04-28T16:44:22.874Z,23.15
2018-04-28T16:47:25.427Z,23.07
2018-04-28T16:50:27.923Z,22.98
2018-04-28T16:53:30.594Z,22.91
2018-04-28T16:56:33.194Z,22.87
2018-04-28T16:59:35.749Z,22.81
2018-04-28T17:02:38.330Z,22.76
2018-04-28T17:05:40.843Z,22.72
2018-04-28T17:08:43.413Z,22.70
2018-04-28T17:11:45.997Z,22.65
2018-04-28T17:14:48.504Z,22.60
2018-04-28T17:17:54.499Z,22.58
2018-04-28T17:20:57.015Z,22.48
2018-04-28T17:23:59.615Z,22.41
2018-04-28T17:27:02.301Z,22.48
2018-04-28T17:30:04.989Z,22.34
2018-04-28T17:33:07.619Z,22.35
2018-04-28T17:36:10.618Z,22.35
2018-04-28T17:39:13.161Z,22.34
2018-04-28T17:42:15.681Z,22.31
2018-04-28T17:45:18.212Z,22.11
2018-04-28T17:48:21.357Z,22.17
2018-04-28T17:51:23.960Z,22.05
2018-04-28T17:54:26.627Z,22.04
2018-04-28T17:57:29.286Z,21.98
2018-04-28T18:00:31.835Z,21.99
2018-04-28T18:03:34.422Z,22.00
2018-04-28T18:06:37.801Z,21.86
2018-04-28T18:09:41.030Z,21.90
2018-04-28T18:12:43.600Z,21.81
2018-04-28T18:15:46.217Z,21.86
2018-04-28T18:18:48.948Z,21.83
2018-04-28T18:21:51.515Z,21.76
2018-04-28T18:24:54.139Z,21.77
2018-04-28T18:27:56.676Z,21.54
2018-04-28T18:30:59.240Z,21.57
2018-04-28T18:34:01.898Z,21.52
2018-04-28T18:37:04.489Z,21.46
2018-04-28T18:40:07.126Z,21.28
2018-04-28T18:43:09.782Z,20.93
2018-04-28T18:46:13.376Z,21.05
2018-04-28T18:49:15.987Z,21.16
2018-04-28T18:52:18.659Z,21.14
2018-04-28T18:55:21.346Z,21.15
2018-04-28T18:58:23.922Z,21.10
2018-04-28T19:01:26.428Z,21.08
2018-04-28T19:04:28.982Z,20.98
2018-04-28T19:07:31.599Z,20.94
2018-04-28T19:10:34.147Z,20.97
2018-04-28T19:13:36.840Z,20.96
2018-04-28T19:16:39.375Z,20.76
2018-04-28T19:19:41.999Z,20.78
2018-04-28T19:22:44.714Z,20.79
2018-04-28T19:25:47.354Z,20.80
2018-04-28T19:28:49.883Z,20.69
2018-04-28T19:31:52.406Z,20.58
2018-04-28T19:34:55.058Z,20.47
2018-04-28T19:37:57.569Z,20.59
2018-04-28T19:41:00.632Z,20.52
2018-04-28T19:44:03.194Z,20.55
2018-04-28T19:47:05.710Z,20.54
2018-04-28T19:50:08.284Z,20.54
2018-04-28T19:53:10.889Z,20.43
2018-04-28T19:56:13.402Z,20.30
2018-04-28T19:59:15.988Z,20.31
2018-04-28T20:02:18.535Z,20.23
2018-04-28T20:05:21.154Z,20.27
2018-04-28T20:08:23.740Z,20.33
2018-04-28T20:11:26.288Z,20.28
2018-04-28T20:14:28.872Z,20.26
2018-04-28T20:17:31.462Z,20.16
2018-04-28T20:20:34.047Z,20.07
2018-04-28T20:23:48.230Z,20.06
2018-04-28T20:26:50.815Z,19.91
2018-04-28T20:29:53.365Z,19.90
2018-04-28T20:32:55.918Z,19.89
2018-04-28T20:35:58.514Z,19.89
2018-04-28T20:39:01.134Z,19.84
2018-04-28T20:42:03.775Z,19.80
2018-04-28T20:45:06.379Z,19.79
2018-04-28T20:48:10.074Z,19.59
2018-04-28T20:51:13.243Z,19.33
2018-04-28T20:54:15.881Z,19.19
2018-04-28T20:57:18.444Z,19.14
2018-04-28T21:00:22.249Z,19.00
2018-04-28T21:03:24.765Z,19.11
2018-04-28T21:06:27.309Z,19.07
2018-04-28T21:09:29.872Z,18.96
2018-04-28T21:12:32.427Z,18.96
2018-04-28T21:15:34.966Z,18.79
2018-04-28T21:18:37.473Z,18.76
2018-04-28T21:21:39.987Z,18.67
2018-04-28T21:24:42.514Z,18.78
2018-04-28T21:27:45.095Z,18.69
2018-04-28T21:30:47.744Z,18.63
2018-04-28T21:33:50.319Z,18.73
2018-04-28T21:36:52.839Z,18.68
2018-04-28T21:39:55.387Z,18.63
2018-04-28T21:42:57.947Z,18.72
2018-04-28T21:46:00.515Z,18.53
2018-04-28T21:49:03.089Z,18.58
2018-04-28T21:52:05.624Z,18.45
2018-04-28T21:55:08.197Z,18.57
2018-04-28T21:58:10.801Z,18.34
2018-04-28T22:01:13.437Z,18.21
2018-04-28T22:04:15.989Z,18.39
2018-04-28T22:07:18.560Z,18.21
2018-04-28T22:10:21.197Z,18.36
2018-04-28T22:13:23.788Z,18.28
2018-04-28T22:16:27.102Z,18.30
2018-04-28T22:19:29.666Z,18.28
2018-04-28T22:22:32.407Z,18.35
2018-04-28T22:25:34.913Z,18.35
2018-04-28T22:28:37.571Z,18.30
2018-04-28T22:31:40.202Z,18.60
2018-04-28T22:34:42.748Z,18.47
2018-04-28T22:37:45.330Z,18.38
2018-04-28T22:40:47.899Z,18.45
2018-04-28T22:43:50.458Z,18.28
2018-04-28T22:46:53.054Z,18.35
2018-04-28T22:49:55.641Z,18.31
2018-04-28T22:52:58.194Z,18.29
2018-04-28T22:56:00.738Z,18.29
2018-04-28T22:59:03.257Z,18.30
2018-04-28T23:02:05.779Z,18.30
2018-04-28T23:05:08.330Z,18.48
2018-04-28T23:08:10.887Z,18.22
2018-04-28T23:11:13.413Z,18.20
2018-04-28T23:14:15.909Z,18.15
2018-04-28T23:17:18.468Z,17.96
2018-04-28T23:20:20.962Z,18.25
2018-04-28T23:23:23.524Z,17.98
2018-04-28T23:26:26.061Z,18.05
2018-04-28T23:29:28.562Z,18.01
2018-04-28T23:32:31.134Z,17.87
2018-04-28T23:35:33.728Z,17.94
2018-04-28T23:38:36.286Z,17.68
2018-04-28T23:41:38.824Z,17.63
2018-04-28T23:44:41.365Z,17.56
2018-04-28T23:47:43.888Z,17.41
2018-04-28T23:50:46.369Z,17.61
2018-04-28T23:53:48.877Z,17.54
2018-04-28T23:56:51.396Z,17.47
2018-04-28T23:59:53.890Z,17.56
